sensor_id;sensor_type;location;lat;lon;timestamp;P1;durP1;ratioP1;P2;durP2;ratioP2
77206;SDS011;66190;50.708;7.906;2023-08-06T00:01:50;6.43;;;2.53;;
77206;SDS011;66190;50.708;7.906;2023-08-06T00:04:15;5.90;;;2.70;;
77206;SDS011;66190;50.708;7.906;2023-08-06T00:06:41;5.75;;;2.47;;
77206;SDS011;66190;50.708;7.906;2023-08-06T00:09:07;6.73;;;3.13;;
77206;SDS011;66190;50.708;7.906;2023-08-06T00:11:32;6.78;;;2.65;;
77206;SDS011;66190;50.708;7.906;2023-08-06T00:13:58;6.50;;;2.80;;
77206;SDS011;66190;50.708;7.906;2023-08-06T00:16:23;7.10;;;2.77;;
77206;SDS011;66190;50.708;7.906;2023-08-06T00:18:49;8.63;;;2.90;;
77206;SDS011;66190;50.708;7.906;2023-08-06T00:21:14;8.97;;;2.50;;
77206;SDS011;66190;50.708;7.906;2023-08-06T00:23:40;6.57;;;2.83;;
77206;SDS011;66190;50.708;7.906;2023-08-06T00:26:06;6.85;;;2.60;;
77206;SDS011;66190;50.708;7.906;2023-08-06T00:28:31;7.70;;;3.00;;
77206;SDS011;66190;50.708;7.906;2023-08-06T00:30:56;5.87;;;2.63;;
77206;SDS011;66190;50.708;7.906;2023-08-06T00:33:22;6.27;;;2.57;;
77206;SDS011;66190;50.708;7.906;2023-08-06T00:35:48;7.00;;;3.10;;
77206;SDS011;66190;50.708;7.906;2023-08-06T00:38:14;7.57;;;2.70;;
77206;SDS011;66190;50.708;7.906;2023-08-06T00:40:39;7.57;;;2.63;;
77206;SDS011;66190;50.708;7.906;2023-08-06T00:43:05;6.57;;;2.97;;
77206;SDS011;66190;50.708;7.906;2023-08-06T00:45:30;6.60;;;2.43;;
77206;SDS011;66190;50.708;7.906;2023-08-06T00:47:59;7.70;;;2.90;;
77206;SDS011;66190;50.708;7.906;2023-08-06T00:50:25;6.18;;;2.78;;
77206;SDS011;66190;50.708;7.906;2023-08-06T00:52:51;7.33;;;2.47;;
77206;SDS011;66190;50.708;7.906;2023-08-06T00:55:17;6.63;;;2.50;;
77206;SDS011;66190;50.708;7.906;2023-08-06T00:57:43;9.68;;;2.90;;
77206;SDS011;66190;50.708;7.906;2023-08-06T01:00:09;7.33;;;2.60;;
77206;SDS011;66190;50.708;7.906;2023-08-06T01:02:34;7.55;;;2.40;;
77206;SDS011;66190;50.708;7.906;2023-08-06T01:05:00;6.70;;;2.70;;
77206;SDS011;66190;50.708;7.906;2023-08-06T01:10:23;5.70;;;2.60;;
77206;SDS011;66190;50.708;7.906;2023-08-06T01:12:59;6.70;;;2.80;;
77206;SDS011;66190;50.708;7.906;2023-08-06T01:15:35;6.68;;;3.03;;
77206;SDS011;66190;50.708;7.906;2023-08-06T01:18:06;7.37;;;2.90;;
77206;SDS011;66190;50.708;7.906;2023-08-06T01:20:32;6.80;;;3.25;;
77206;SDS011;66190;50.708;7.906;2023-08-06T01:22:58;7.13;;;3.20;;
77206;SDS011;66190;50.708;7.906;2023-08-06T01:25:26;6.82;;;2.88;;
77206;SDS011;66190;50.708;7.906;2023-08-06T01:28:00;6.40;;;2.70;;
77206;SDS011;66190;50.708;7.906;2023-08-06T01:30:32;6.43;;;2.80;;
77206;SDS011;66190;50.708;7.906;2023-08-06T01:33:04;8.40;;;3.10;;
77206;SDS011;66190;50.708;7.906;2023-08-06T01:35:31;6.80;;;2.80;;
77206;SDS011;66190;50.708;7.906;2023-08-06T01:37:59;7.00;;;3.03;;
77206;SDS011;66190;50.708;7.906;2023-08-06T01:40:25;8.70;;;2.83;;
77206;SDS011;66190;50.708;7.906;2023-08-06T01:42:53;8.10;;;2.90;;
77206;SDS011;66190;50.708;7.906;2023-08-06T01:45:18;7.70;;;3.27;;
77206;SDS011;66190;50.708;7.906;2023-08-06T01:47:44;7.13;;;2.63;;
77206;SDS011;66190;50.708;7.906;2023-08-06T01:50:09;7.33;;;3.40;;
77206;SDS011;66190;50.708;7.906;2023-08-06T01:52:34;8.47;;;2.60;;
77206;SDS011;66190;50.708;7.906;2023-08-06T01:55:00;8.90;;;3.60;;
77206;SDS011;66190;50.708;7.906;2023-08-06T01:57:25;8.10;;;2.77;;
77206;SDS011;66190;50.708;7.906;2023-08-06T01:59:51;7.17;;;3.23;;
77206;SDS011;66190;50.708;7.906;2023-08-06T02:02:16;6.97;;;2.97;;
77206;SDS011;66190;50.708;7.906;2023-08-06T02:04:41;8.40;;;3.27;;
77206;SDS011;66190;50.708;7.906;2023-08-06T02:07:07;8.07;;;3.40;;
77206;SDS011;66190;50.708;7.906;2023-08-06T02:09:32;7.07;;;3.57;;
77206;SDS011;66190;50.708;7.906;2023-08-06T02:12:00;8.10;;;3.25;;
77206;SDS011;66190;50.708;7.906;2023-08-06T02:14:25;7.43;;;3.30;;
77206;SDS011;66190;50.708;7.906;2023-08-06T02:16:51;7.07;;;2.90;;
77206;SDS011;66190;50.708;7.906;2023-08-06T02:19:16;7.13;;;3.30;;
77206;SDS011;66190;50.708;7.906;2023-08-06T02:21:42;7.30;;;3.30;;
77206;SDS011;66190;50.708;7.906;2023-08-06T02:24:07;7.00;;;3.47;;
77206;SDS011;66190;50.708;7.906;2023-08-06T02:26:32;6.82;;;3.25;;
77206;SDS011;66190;50.708;7.906;2023-08-06T02:28:58;7.87;;;2.83;;
77206;SDS011;66190;50.708;7.906;2023-08-06T02:31:23;7.27;;;2.70;;
77206;SDS011;66190;50.708;7.906;2023-08-06T02:33:49;7.67;;;2.40;;
77206;SDS011;66190;50.708;7.906;2023-08-06T02:36:14;7.97;;;2.53;;
77206;SDS011;66190;50.708;7.906;2023-08-06T02:38:39;7.70;;;2.45;;
77206;SDS011;66190;50.708;7.906;2023-08-06T02:41:05;7.80;;;2.88;;
77206;SDS011;66190;50.708;7.906;2023-08-06T02:43:30;6.00;;;2.30;;
77206;SDS011;66190;50.708;7.906;2023-08-06T02:45:57;7.10;;;2.65;;
77206;SDS011;66190;50.708;7.906;2023-08-06T02:48:23;6.07;;;2.72;;
77206;SDS011;66190;50.708;7.906;2023-08-06T02:50:48;7.30;;;2.80;;
77206;SDS011;66190;50.708;7.906;2023-08-06T02:53:13;6.83;;;2.60;;
77206;SDS011;66190;50.708;7.906;2023-08-06T02:55:44;6.23;;;2.70;;
77206;SDS011;66190;50.708;7.906;2023-08-06T02:58:11;6.72;;;2.60;;
77206;SDS011;66190;50.708;7.906;2023-08-06T03:00:37;6.50;;;2.03;;
77206;SDS011;66190;50.708;7.906;2023-08-06T03:03:02;7.00;;;2.97;;
77206;SDS011;66190;50.708;7.906;2023-08-06T03:05:27;6.37;;;2.60;;
77206;SDS011;66190;50.708;7.906;2023-08-06T03:07:53;6.33;;;2.50;;
77206;SDS011;66190;50.708;7.906;2023-08-06T03:10:18;6.70;;;2.60;;
77206;SDS011;66190;50.708;7.906;2023-08-06T03:12:44;5.93;;;2.40;;
77206;SDS011;66190;50.708;7.906;2023-08-06T03:15:10;6.90;;;2.57;;
77206;SDS011;66190;50.708;7.906;2023-08-06T03:17:35;5.75;;;2.17;;
77206;SDS011;66190;50.708;7.906;2023-08-06T03:20:01;5.83;;;2.50;;
77206;SDS011;66190;50.708;7.906;2023-08-06T03:22:26;7.10;;;2.70;;
77206;SDS011;66190;50.708;7.906;2023-08-06T03:24:51;7.63;;;2.47;;
77206;SDS011;66190;50.708;7.906;2023-08-06T03:27:17;7.53;;;2.30;;
77206;SDS011;66190;50.708;7.906;2023-08-06T03:29:42;7.60;;;2.30;;
77206;SDS011;66190;50.708;7.906;2023-08-06T03:32:08;6.37;;;2.50;;
77206;SDS011;66190;50.708;7.906;2023-08-06T03:34:33;6.65;;;2.28;;
77206;SDS011;66190;50.708;7.906;2023-08-06T03:36:58;5.80;;;2.20;;
77206;SDS011;66190;50.708;7.906;2023-08-06T03:39:24;7.33;;;1.97;;
77206;SDS011;66190;50.708;7.906;2023-08-06T03:41:49;5.77;;;2.13;;
77206;SDS011;66190;50.708;7.906;2023-08-06T03:44:14;6.40;;;2.47;;
77206;SDS011;66190;50.708;7.906;2023-08-06T03:46:40;6.23;;;2.10;;
77206;SDS011;66190;50.708;7.906;2023-08-06T03:49:05;6.63;;;2.20;;
77206;SDS011;66190;50.708;7.906;2023-08-06T03:51:30;6.60;;;2.20;;
77206;SDS011;66190;50.708;7.906;2023-08-06T03:53:56;7.40;;;2.27;;
77206;SDS011;66190;50.708;7.906;2023-08-06T03:56:21;6.32;;;1.90;;
77206;SDS011;66190;50.708;7.906;2023-08-06T03:58:46;7.20;;;1.90;;
77206;SDS011;66190;50.708;7.906;2023-08-06T04:01:12;6.83;;;1.63;;
77206;SDS011;66190;50.708;7.906;2023-08-06T04:03:37;5.97;;;1.70;;
77206;SDS011;66190;50.708;7.906;2023-08-06T04:06:03;5.10;;;1.47;;
77206;SDS011;66190;50.708;7.906;2023-08-06T04:08:28;6.05;;;1.73;;
77206;SDS011;66190;50.708;7.906;2023-08-06T04:10:54;6.60;;;2.00;;
77206;SDS011;66190;50.708;7.906;2023-08-06T04:13:19;5.30;;;1.70;;
77206;SDS011;66190;50.708;7.906;2023-08-06T04:15:45;5.63;;;1.80;;
77206;SDS011;66190;50.708;7.906;2023-08-06T04:18:11;6.80;;;2.63;;
77206;SDS011;66190;50.708;7.906;2023-08-06T04:20:43;5.63;;;2.05;;
77206;SDS011;66190;50.708;7.906;2023-08-06T04:23:10;6.72;;;2.42;;
77206;SDS011;66190;50.708;7.906;2023-08-06T04:25:35;5.97;;;2.53;;
77206;SDS011;66190;50.708;7.906;2023-08-06T04:28:00;6.30;;;2.50;;
77206;SDS011;66190;50.708;7.906;2023-08-06T04:30:26;6.23;;;2.10;;
77206;SDS011;66190;50.708;7.906;2023-08-06T04:32:51;6.63;;;2.67;;
77206;SDS011;66190;50.708;7.906;2023-08-06T04:35:16;6.80;;;2.50;;
77206;SDS011;66190;50.708;7.906;2023-08-06T04:37:42;6.10;;;2.17;;
77206;SDS011;66190;50.708;7.906;2023-08-06T04:40:07;7.70;;;2.78;;
77206;SDS011;66190;50.708;7.906;2023-08-06T04:42:33;6.30;;;2.70;;
77206;SDS011;66190;50.708;7.906;2023-08-06T04:44:58;7.27;;;2.53;;
77206;SDS011;66190;50.708;7.906;2023-08-06T04:47:25;7.22;;;2.72;;
77206;SDS011;66190;50.708;7.906;2023-08-06T04:49:51;7.00;;;2.90;;
77206;SDS011;66190;50.708;7.906;2023-08-06T04:52:16;6.40;;;2.60;;
77206;SDS011;66190;50.708;7.906;2023-08-06T04:54:43;6.57;;;2.38;;
77206;SDS011;66190;50.708;7.906;2023-08-06T04:57:08;6.23;;;2.33;;
77206;SDS011;66190;50.708;7.906;2023-08-06T04:59:34;5.38;;;2.00;;
77206;SDS011;66190;50.708;7.906;2023-08-06T05:01:59;6.47;;;1.83;;
77206;SDS011;66190;50.708;7.906;2023-08-06T05:04:25;6.80;;;2.10;;
77206;SDS011;66190;50.708;7.906;2023-08-06T05:07:10;4.78;;;1.60;;
77206;SDS011;66190;50.708;7.906;2023-08-06T05:09:36;6.00;;;1.60;;
77206;SDS011;66190;50.708;7.906;2023-08-06T05:12:03;4.13;;;1.35;;
77206;SDS011;66190;50.708;7.906;2023-08-06T05:14:29;5.22;;;1.42;;
77206;SDS011;66190;50.708;7.906;2023-08-06T05:16:54;6.83;;;1.70;;
77206;SDS011;66190;50.708;7.906;2023-08-06T05:19:19;4.47;;;1.05;;
77206;SDS011;66190;50.708;7.906;2023-08-06T05:21:45;4.70;;;1.07;;
77206;SDS011;66190;50.708;7.906;2023-08-06T05:24:10;4.57;;;1.30;;
77206;SDS011;66190;50.708;7.906;2023-08-06T05:26:35;5.73;;;1.03;;
77206;SDS011;66190;50.708;7.906;2023-08-06T05:29:01;4.33;;;1.00;;
77206;SDS011;66190;50.708;7.906;2023-08-06T05:31:26;3.83;;;1.00;;
77206;SDS011;66190;50.708;7.906;2023-08-06T05:33:53;5.30;;;1.20;;
77206;SDS011;66190;50.708;7.906;2023-08-06T05:36:19;4.50;;;1.10;;
77206;SDS011;66190;50.708;7.906;2023-08-06T05:38:44;5.90;;;1.65;;
77206;SDS011;66190;50.708;7.906;2023-08-06T05:41:10;6.60;;;1.80;;
77206;SDS011;66190;50.708;7.906;2023-08-06T05:43:35;5.43;;;1.60;;
77206;SDS011;66190;50.708;7.906;2023-08-06T05:46:00;6.27;;;1.50;;
77206;SDS011;66190;50.708;7.906;2023-08-06T05:48:26;4.37;;;1.20;;
77206;SDS011;66190;50.708;7.906;2023-08-06T05:50:52;4.05;;;1.05;;
77206;SDS011;66190;50.708;7.906;2023-08-06T05:53:18;3.93;;;1.17;;
77206;SDS011;66190;50.708;7.906;2023-08-06T05:55:44;4.40;;;1.10;;
77206;SDS011;66190;50.708;7.906;2023-08-06T05:58:10;4.22;;;1.10;;
77206;SDS011;66190;50.708;7.906;2023-08-06T06:00:35;5.03;;;1.10;;
77206;SDS011;66190;50.708;7.906;2023-08-06T06:03:01;5.07;;;1.30;;
77206;SDS011;66190;50.708;7.906;2023-08-06T06:05:27;4.53;;;1.02;;
77206;SDS011;66190;50.708;7.906;2023-08-06T06:07:53;4.07;;;1.10;;
77206;SDS011;66190;50.708;7.906;2023-08-06T06:10:18;5.20;;;1.20;;
77206;SDS011;66190;50.708;7.906;2023-08-06T06:12:43;4.78;;;1.30;;
77206;SDS011;66190;50.708;7.906;2023-08-06T06:15:09;4.20;;;1.20;;
77206;SDS011;66190;50.708;7.906;2023-08-06T06:17:34;5.03;;;1.20;;
77206;SDS011;66190;50.708;7.906;2023-08-06T06:20:00;3.70;;;0.90;;
77206;SDS011;66190;50.708;7.906;2023-08-06T06:22:26;4.90;;;1.20;;
77206;SDS011;66190;50.708;7.906;2023-08-06T06:24:51;3.60;;;1.03;;
77206;SDS011;66190;50.708;7.906;2023-08-06T06:27:16;3.53;;;0.90;;
77206;SDS011;66190;50.708;7.906;2023-08-06T06:29:42;3.60;;;0.90;;
77206;SDS011;66190;50.708;7.906;2023-08-06T06:32:07;3.47;;;0.90;;
77206;SDS011;66190;50.708;7.906;2023-08-06T06:34:32;3.53;;;0.90;;
77206;SDS011;66190;50.708;7.906;2023-08-06T06:36:58;2.87;;;0.67;;
77206;SDS011;66190;50.708;7.906;2023-08-06T06:39:23;3.70;;;0.90;;
77206;SDS011;66190;50.708;7.906;2023-08-06T06:41:48;5.53;;;0.90;;
77206;SDS011;66190;50.708;7.906;2023-08-06T06:44:14;2.83;;;0.80;;
77206;SDS011;66190;50.708;7.906;2023-08-06T06:46:40;3.33;;;0.80;;
77206;SDS011;66190;50.708;7.906;2023-08-06T06:49:06;2.90;;;0.70;;
77206;SDS011;66190;50.708;7.906;2023-08-06T06:51:31;3.05;;;0.70;;
77206;SDS011;66190;50.708;7.906;2023-08-06T06:53:57;3.20;;;0.77;;
77206;SDS011;66190;50.708;7.906;2023-08-06T06:56:22;2.83;;;0.60;;
77206;SDS011;66190;50.708;7.906;2023-08-06T06:58:47;2.95;;;0.68;;
77206;SDS011;66190;50.708;7.906;2023-08-06T07:01:13;3.27;;;0.70;;
77206;SDS011;66190;50.708;7.906;2023-08-06T07:03:38;2.60;;;0.60;;
77206;SDS011;66190;50.708;7.906;2023-08-06T07:06:04;2.90;;;0.60;;
77206;SDS011;66190;50.708;7.906;2023-08-06T07:08:30;2.50;;;0.80;;
77206;SDS011;66190;50.708;7.906;2023-08-06T07:11:05;2.70;;;0.57;;
77206;SDS011;66190;50.708;7.906;2023-08-06T07:13:31;2.88;;;0.60;;
77206;SDS011;66190;50.708;7.906;2023-08-06T07:15:58;4.60;;;1.15;;
77206;SDS011;66190;50.708;7.906;2023-08-06T07:18:23;2.93;;;0.67;;
77206;SDS011;66190;50.708;7.906;2023-08-06T07:20:49;3.15;;;0.77;;
77206;SDS011;66190;50.708;7.906;2023-08-06T07:23:16;2.55;;;0.60;;
77206;SDS011;66190;50.708;7.906;2023-08-06T07:25:41;3.73;;;0.60;;
77206;SDS011;66190;50.708;7.906;2023-08-06T07:28:07;2.97;;;0.60;;
77206;SDS011;66190;50.708;7.906;2023-08-06T07:30:33;2.90;;;0.80;;
77206;SDS011;66190;50.708;7.906;2023-08-06T07:32:58;2.13;;;0.50;;
77206;SDS011;66190;50.708;7.906;2023-08-06T07:35:23;2.87;;;0.60;;
77206;SDS011;66190;50.708;7.906;2023-08-06T07:37:49;2.87;;;0.70;;
77206;SDS011;66190;50.708;7.906;2023-08-06T07:40:14;2.87;;;0.50;;
77206;SDS011;66190;50.708;7.906;2023-08-06T07:42:39;3.03;;;0.77;;
77206;SDS011;66190;50.708;7.906;2023-08-06T07:45:05;3.57;;;0.97;;
77206;SDS011;66190;50.708;7.906;2023-08-06T07:47:32;3.67;;;0.82;;
77206;SDS011;66190;50.708;7.906;2023-08-06T07:49:57;3.97;;;0.80;;
77206;SDS011;66190;50.708;7.906;2023-08-06T07:52:22;4.55;;;1.00;;
77206;SDS011;66190;50.708;7.906;2023-08-06T07:54:48;4.07;;;1.20;;
77206;SDS011;66190;50.708;7.906;2023-08-06T07:57:13;4.60;;;1.27;;
77206;SDS011;66190;50.708;7.906;2023-08-06T07:59:40;4.35;;;1.10;;
77206;SDS011;66190;50.708;7.906;2023-08-06T08:02:05;3.50;;;0.87;;
77206;SDS011;66190;50.708;7.906;2023-08-06T08:04:30;5.03;;;1.57;;
77206;SDS011;66190;50.708;7.906;2023-08-06T08:06:56;3.37;;;0.70;;
77206;SDS011;66190;50.708;7.906;2023-08-06T08:09:21;3.53;;;1.00;;
77206;SDS011;66190;50.708;7.906;2023-08-06T08:11:47;3.20;;;0.70;;
77206;SDS011;66190;50.708;7.906;2023-08-06T08:14:12;3.70;;;0.80;;
77206;SDS011;66190;50.708;7.906;2023-08-06T08:16:38;2.50;;;0.63;;
77206;SDS011;66190;50.708;7.906;2023-08-06T08:19:03;4.53;;;1.23;;
77206;SDS011;66190;50.708;7.906;2023-08-06T08:21:29;3.90;;;1.00;;
77206;SDS011;66190;50.708;7.906;2023-08-06T08:23:54;4.20;;;1.20;;
77206;SDS011;66190;50.708;7.906;2023-08-06T08:26:19;3.60;;;0.87;;
77206;SDS011;66190;50.708;7.906;2023-08-06T08:28:45;4.13;;;0.90;;
77206;SDS011;66190;50.708;7.906;2023-08-06T08:31:11;3.33;;;0.98;;
77206;SDS011;66190;50.708;7.906;2023-08-06T08:33:39;3.33;;;0.80;;
77206;SDS011;66190;50.708;7.906;2023-08-06T08:36:05;3.80;;;1.00;;
77206;SDS011;66190;50.708;7.906;2023-08-06T08:38:30;4.10;;;1.10;;
77206;SDS011;66190;50.708;7.906;2023-08-06T08:40:56;3.30;;;0.90;;
77206;SDS011;66190;50.708;7.906;2023-08-06T08:43:22;3.60;;;1.17;;
77206;SDS011;66190;50.708;7.906;2023-08-06T08:45:51;3.85;;;0.90;;
77206;SDS011;66190;50.708;7.906;2023-08-06T08:48:20;4.25;;;0.90;;
77206;SDS011;66190;50.708;7.906;2023-08-06T08:50:48;4.20;;;1.05;;
77206;SDS011;66190;50.708;7.906;2023-08-06T08:53:15;3.63;;;0.90;;
77206;SDS011;66190;50.708;7.906;2023-08-06T08:55:46;4.53;;;1.35;;
77206;SDS011;66190;50.708;7.906;2023-08-06T08:58:13;2.95;;;0.65;;
77206;SDS011;66190;50.708;7.906;2023-08-06T09:00:42;3.13;;;0.70;;
77206;SDS011;66190;50.708;7.906;2023-08-06T09:03:10;4.18;;;1.02;;
77206;SDS011;66190;50.708;7.906;2023-08-06T09:05:36;4.00;;;0.80;;
77206;SDS011;66190;50.708;7.906;2023-08-06T09:08:06;3.80;;;0.98;;
77206;SDS011;66190;50.708;7.906;2023-08-06T09:10:36;3.83;;;1.02;;
77206;SDS011;66190;50.708;7.906;2023-08-06T09:13:02;4.35;;;1.08;;
77206;SDS011;66190;50.708;7.906;2023-08-06T09:15:28;5.13;;;1.15;;
77206;SDS011;66190;50.708;7.906;2023-08-06T09:17:55;5.63;;;1.20;;
77206;SDS011;66190;50.708;7.906;2023-08-06T09:20:21;5.88;;;2.33;;
77206;SDS011;66190;50.708;7.906;2023-08-06T09:22:46;5.60;;;2.13;;
77206;SDS011;66190;50.708;7.906;2023-08-06T09:25:21;5.63;;;2.53;;
77206;SDS011;66190;50.708;7.906;2023-08-06T09:27:49;4.75;;;1.70;;
77206;SDS011;66190;50.708;7.906;2023-08-06T09:30:28;5.03;;;1.90;;
77206;SDS011;66190;50.708;7.906;2023-08-06T09:32:55;5.03;;;1.88;;
77206;SDS011;66190;50.708;7.906;2023-08-06T09:35:21;5.00;;;1.67;;
77206;SDS011;66190;50.708;7.906;2023-08-06T09:37:46;4.18;;;1.30;;
77206;SDS011;66190;50.708;7.906;2023-08-06T09:40:31;4.68;;;1.65;;
77206;SDS011;66190;50.708;7.906;2023-08-06T09:42:57;4.70;;;1.57;;
77206;SDS011;66190;50.708;7.906;2023-08-06T09:45:28;5.13;;;1.50;;
77206;SDS011;66190;50.708;7.906;2023-08-06T09:47:56;6.93;;;1.80;;
77206;SDS011;66190;50.708;7.906;2023-08-06T09:50:22;5.28;;;1.90;;
77206;SDS011;66190;50.708;7.906;2023-08-06T09:52:48;5.50;;;2.30;;
77206;SDS011;66190;50.708;7.906;2023-08-06T09:55:15;5.30;;;1.50;;
77206;SDS011;66190;50.708;7.906;2023-08-06T09:57:41;5.30;;;1.85;;
77206;SDS011;66190;50.708;7.906;2023-08-06T10:00:10;4.80;;;1.58;;
77206;SDS011;66190;50.708;7.906;2023-08-06T10:02:40;5.53;;;1.80;;
77206;SDS011;66190;50.708;7.906;2023-08-06T10:05:08;4.97;;;1.73;;
77206;SDS011;66190;50.708;7.906;2023-08-06T10:07:35;5.75;;;2.00;;
77206;SDS011;66190;50.708;7.906;2023-08-06T10:10:01;5.35;;;1.67;;
77206;SDS011;66190;50.708;7.906;2023-08-06T10:12:32;5.40;;;1.93;;
77206;SDS011;66190;50.708;7.906;2023-08-06T10:15:01;6.28;;;2.40;;
77206;SDS011;66190;50.708;7.906;2023-08-06T10:17:31;8.18;;;2.15;;
77206;SDS011;66190;50.708;7.906;2023-08-06T10:19:58;6.35;;;1.80;;
77206;SDS011;66190;50.708;7.906;2023-08-06T10:22:24;5.80;;;2.10;;
77206;SDS011;66190;50.708;7.906;2023-08-06T10:24:58;6.20;;;2.30;;
77206;SDS011;66190;50.708;7.906;2023-08-06T10:27:53;6.05;;;2.50;;
77206;SDS011;66190;50.708;7.906;2023-08-06T10:32:53;5.80;;;1.77;;
77206;SDS011;66190;50.708;7.906;2023-08-06T10:35:42;4.55;;;1.30;;
77206;SDS011;66190;50.708;7.906;2023-08-06T10:38:24;4.37;;;0.80;;
77206;SDS011;66190;50.708;7.906;2023-08-06T10:43:32;3.73;;;1.03;;
77206;SDS011;66190;50.708;7.906;2023-08-06T10:46:08;3.65;;;1.00;;
77206;SDS011;66190;50.708;7.906;2023-08-06T10:48:38;3.70;;;1.08;;
77206;SDS011;66190;50.708;7.906;2023-08-06T10:51:09;3.70;;;1.00;;
77206;SDS011;66190;50.708;7.906;2023-08-06T10:53:35;4.03;;;1.13;;
77206;SDS011;66190;50.708;7.906;2023-08-06T10:56:01;3.93;;;0.90;;
77206;SDS011;66190;50.708;7.906;2023-08-06T10:58:36;3.80;;;0.77;;
77206;SDS011;66190;50.708;7.906;2023-08-06T11:01:02;3.33;;;0.90;;
77206;SDS011;66190;50.708;7.906;2023-08-06T11:03:27;5.20;;;0.97;;
77206;SDS011;66190;50.708;7.906;2023-08-06T11:05:53;3.70;;;1.17;;
77206;SDS011;66190;50.708;7.906;2023-08-06T11:08:28;3.30;;;0.97;;
77206;SDS011;66190;50.708;7.906;2023-08-06T11:10:57;3.67;;;1.15;;
77206;SDS011;66190;50.708;7.906;2023-08-06T11:13:37;3.28;;;0.90;;
77206;SDS011;66190;50.708;7.906;2023-08-06T11:16:05;3.40;;;0.98;;
77206;SDS011;66190;50.708;7.906;2023-08-06T11:18:31;3.07;;;0.80;;
77206;SDS011;66190;50.708;7.906;2023-08-06T11:20:58;4.05;;;0.80;;
77206;SDS011;66190;50.708;7.906;2023-08-06T11:23:26;2.30;;;0.57;;
77206;SDS011;66190;50.708;7.906;2023-08-06T11:25:57;1.87;;;0.50;;
77206;SDS011;66190;50.708;7.906;2023-08-06T11:28:23;1.80;;;0.50;;
77206;SDS011;66190;50.708;7.906;2023-08-06T11:30:49;2.97;;;0.70;;
77206;SDS011;66190;50.708;7.906;2023-08-06T11:33:24;2.42;;;0.60;;
77206;SDS011;66190;50.708;7.906;2023-08-06T11:35:51;2.90;;;0.82;;
77206;SDS011;66190;50.708;7.906;2023-08-06T11:38:17;1.73;;;0.50;;
77206;SDS011;66190;50.708;7.906;2023-08-06T11:40:46;2.15;;;0.45;;
77206;SDS011;66190;50.708;7.906;2023-08-06T11:43:12;2.28;;;0.43;;
77206;SDS011;66190;50.708;7.906;2023-08-06T11:45:38;1.30;;;0.40;;
77206;SDS011;66190;50.708;7.906;2023-08-06T11:48:05;1.50;;;0.40;;
77206;SDS011;66190;50.708;7.906;2023-08-06T11:50:31;2.45;;;0.50;;
77206;SDS011;66190;50.708;7.906;2023-08-06T11:52:59;2.03;;;0.50;;
77206;SDS011;66190;50.708;7.906;2023-08-06T11:55:26;2.83;;;0.70;;
77206;SDS011;66190;50.708;7.906;2023-08-06T11:57:53;2.00;;;0.40;;
77206;SDS011;66190;50.708;7.906;2023-08-06T12:00:19;2.88;;;0.60;;
77206;SDS011;66190;50.708;7.906;2023-08-06T12:02:49;2.20;;;0.50;;
77206;SDS011;66190;50.708;7.906;2023-08-06T12:05:20;3.17;;;0.68;;
77206;SDS011;66190;50.708;7.906;2023-08-06T12:07:48;4.00;;;0.80;;
77206;SDS011;66190;50.708;7.906;2023-08-06T12:10:21;2.25;;;0.60;;
77206;SDS011;66190;50.708;7.906;2023-08-06T12:12:48;3.30;;;0.60;;
77206;SDS011;66190;50.708;7.906;2023-08-06T12:15:15;3.23;;;0.70;;
77206;SDS011;66190;50.708;7.906;2023-08-06T12:17:41;2.60;;;0.60;;
77206;SDS011;66190;50.708;7.906;2023-08-06T12:20:07;4.65;;;0.80;;
77206;SDS011;66190;50.708;7.906;2023-08-06T12:22:33;3.20;;;0.80;;
77206;SDS011;66190;50.708;7.906;2023-08-06T12:25:04;3.10;;;0.80;;
77206;SDS011;66190;50.708;7.906;2023-08-06T12:27:33;3.50;;;0.88;;
77206;SDS011;66190;50.708;7.906;2023-08-06T12:30:02;3.38;;;0.80;;
77206;SDS011;66190;50.708;7.906;2023-08-06T12:32:28;3.38;;;0.60;;
77206;SDS011;66190;50.708;7.906;2023-08-06T12:34:54;2.22;;;0.60;;
77206;SDS011;66190;50.708;7.906;2023-08-06T12:37:20;4.35;;;1.10;;
77206;SDS011;66190;50.708;7.906;2023-08-06T12:39:45;3.33;;;0.77;;
77206;SDS011;66190;50.708;7.906;2023-08-06T12:42:11;3.87;;;0.90;;
77206;SDS011;66190;50.708;7.906;2023-08-06T12:44:36;4.43;;;1.00;;
77206;SDS011;66190;50.708;7.906;2023-08-06T12:47:02;3.17;;;0.70;;
77206;SDS011;66190;50.708;7.906;2023-08-06T12:49:27;3.17;;;0.80;;
77206;SDS011;66190;50.708;7.906;2023-08-06T12:51:54;3.85;;;1.08;;
77206;SDS011;66190;50.708;7.906;2023-08-06T12:54:21;3.72;;;1.10;;
77206;SDS011;66190;50.708;7.906;2023-08-06T12:56:47;5.03;;;1.53;;
77206;SDS011;66190;50.708;7.906;2023-08-06T12:59:16;3.80;;;1.23;;
77206;SDS011;66190;50.708;7.906;2023-08-06T13:01:42;4.28;;;1.33;;
77206;SDS011;66190;50.708;7.906;2023-08-06T13:04:08;5.20;;;1.40;;
77206;SDS011;66190;50.708;7.906;2023-08-06T13:06:34;4.65;;;0.90;;
77206;SDS011;66190;50.708;7.906;2023-08-06T13:09:04;3.90;;;1.08;;
77206;SDS011;66190;50.708;7.906;2023-08-06T13:11:31;4.45;;;1.00;;
77206;SDS011;66190;50.708;7.906;2023-08-06T13:14:17;3.95;;;1.15;;
77206;SDS011;66190;50.708;7.906;2023-08-06T13:16:42;4.30;;;1.10;;
77206;SDS011;66190;50.708;7.906;2023-08-06T13:19:09;5.30;;;1.35;;
77206;SDS011;66190;50.708;7.906;2023-08-06T13:21:57;4.10;;;1.05;;
77206;SDS011;66190;50.708;7.906;2023-08-06T13:24:29;4.63;;;1.67;;
77206;SDS011;66190;50.708;7.906;2023-08-06T13:26:54;4.00;;;1.13;;
77206;SDS011;66190;50.708;7.906;2023-08-06T13:29:20;4.88;;;1.30;;
77206;SDS011;66190;50.708;7.906;2023-08-06T13:31:45;5.37;;;1.30;;
77206;SDS011;66190;50.708;7.906;2023-08-06T13:34:10;5.37;;;1.63;;
77206;SDS011;66190;50.708;7.906;2023-08-06T13:36:36;4.37;;;1.10;;
77206;SDS011;66190;50.708;7.906;2023-08-06T13:39:01;4.70;;;1.13;;
77206;SDS011;66190;50.708;7.906;2023-08-06T13:41:28;3.88;;;1.23;;
77206;SDS011;66190;50.708;7.906;2023-08-06T13:43:54;3.90;;;1.00;;
77206;SDS011;66190;50.708;7.906;2023-08-06T13:46:19;4.78;;;1.05;;
77206;SDS011;66190;50.708;7.906;2023-08-06T13:48:45;3.80;;;0.80;;
77206;SDS011;66190;50.708;7.906;2023-08-06T13:51:12;4.93;;;1.25;;
77206;SDS011;66190;50.708;7.906;2023-08-06T13:53:38;4.82;;;1.00;;
77206;SDS011;66190;50.708;7.906;2023-08-06T13:56:05;3.43;;;0.80;;
77206;SDS011;66190;50.708;7.906;2023-08-06T13:58:31;3.20;;;0.77;;
77206;SDS011;66190;50.708;7.906;2023-08-06T14:00:57;4.03;;;0.90;;
77206;SDS011;66190;50.708;7.906;2023-08-06T14:03:23;2.77;;;0.73;;
77206;SDS011;66190;50.708;7.906;2023-08-06T14:05:48;3.38;;;0.80;;
77206;SDS011;66190;50.708;7.906;2023-08-06T14:08:14;5.20;;;1.10;;
77206;SDS011;66190;50.708;7.906;2023-08-06T14:10:40;3.08;;;0.75;;
77206;SDS011;66190;50.708;7.906;2023-08-06T14:13:05;4.90;;;1.00;;
77206;SDS011;66190;50.708;7.906;2023-08-06T14:15:30;3.50;;;1.10;;
77206;SDS011;66190;50.708;7.906;2023-08-06T14:17:58;5.47;;;1.63;;
77206;SDS011;66190;50.708;7.906;2023-08-06T14:20:23;4.63;;;1.67;;
77206;SDS011;66190;50.708;7.906;2023-08-06T14:22:48;4.65;;;1.40;;
77206;SDS011;66190;50.708;7.906;2023-08-06T14:25:14;4.55;;;1.35;;
77206;SDS011;66190;50.708;7.906;2023-08-06T14:27:39;4.17;;;1.30;;
77206;SDS011;66190;50.708;7.906;2023-08-06T14:30:06;6.30;;;2.15;;
77206;SDS011;66190;50.708;7.906;2023-08-06T14:32:32;4.72;;;1.50;;
77206;SDS011;66190;50.708;7.906;2023-08-06T14:34:58;4.75;;;1.70;;
77206;SDS011;66190;50.708;7.906;2023-08-06T14:37:24;4.47;;;1.55;;
77206;SDS011;66190;50.708;7.906;2023-08-06T14:39:49;5.93;;;2.23;;
77206;SDS011;66190;50.708;7.906;2023-08-06T14:42:15;4.97;;;1.40;;
77206;SDS011;66190;50.708;7.906;2023-08-06T14:44:40;5.43;;;1.73;;
77206;SDS011;66190;50.708;7.906;2023-08-06T14:47:06;4.50;;;1.60;;
77206;SDS011;66190;50.708;7.906;2023-08-06T14:49:31;5.50;;;2.03;;
77206;SDS011;66190;50.708;7.906;2023-08-06T14:51:57;4.05;;;1.00;;
77206;SDS011;66190;50.708;7.906;2023-08-06T14:54:25;3.97;;;1.40;;